createdAt,value
2017-08-21T00:00:33.736Z,1015.49
2017-08-21T00:01:42.789Z,1015.5
2017-08-21T00:02:52.168Z,1015.46
2017-08-21T00:04:01.448Z,1015.48
2017-08-21T00:05:10.531Z,1015.47
2017-08-21T00:06:19.683Z,1015.49
2017-08-21T00:07:28.747Z,1015.52
2017-08-21T00:08:37.852Z,1015.51
2017-08-21T00:09:46.975Z,1015.5
2017-08-21T00:10:56.106Z,1015.51
2017-08-21T00:12:05.530Z,1015.52
2017-08-21T00:13:14.484Z,1015.52
2017-08-21T00:14:23.444Z,1015.54
2017-08-21T00:15:32.400Z,1015.54
2017-08-21T00:16:41.349Z,1015.56
2017-08-21T00:17:50.306Z,1015.57
2017-08-21T00:18:59.267Z,1015.54
2017-08-21T00:20:08.224Z,1015.62
2017-08-21T00:21:17.180Z,1015.56
2017-08-21T00:22:26.130Z,1015.56
2017-08-21T00:23:35.083Z,1015.54
2017-08-21T00:24:44.040Z,1015.54
2017-08-21T00:25:53.000Z,1015.56
2017-08-21T00:27:01.964Z,1015.52
2017-08-21T00:28:10.928Z,1015.58
2017-08-21T00:29:19.880Z,1015.54
2017-08-21T00:30:28.845Z,1015.54
2017-08-21T00:31:37.811Z,1015.59
2017-08-21T00:32:46.768Z,1015.59
2017-08-21T00:33:55.714Z,1015.58
2017-08-21T00:35:04.689Z,1015.63
2017-08-21T00:36:13.647Z,1015.56
2017-08-21T00:37:22.918Z,1015.63
2017-08-21T00:38:31.872Z,1015.61
2017-08-21T00:39:40.830Z,1015.6
2017-08-21T00:40:49.791Z,1015.61
2017-08-21T00:41:58.753Z,1015.63
2017-08-21T00:43:07.721Z,1015.63
2017-08-21T00:44:16.674Z,1015.64
2017-08-21T00:45:25.633Z,1015.66
2017-08-21T00:46:35.235Z,1015.7
2017-08-21T00:47:44.188Z,1015.66
2017-08-21T00:48:53.140Z,1015.65
2017-08-21T00:50:02.112Z,1015.67
2017-08-21T00:51:11.086Z,1015.65
2017-08-21T00:52:20.034Z,1015.65
2017-08-21T00:53:28.997Z,1015.64
2017-08-21T00:54:37.957Z,1015.67
2017-08-21T00:55:46.905Z,1015.66
2017-08-21T00:56:55.852Z,1015.66
2017-08-21T00:58:04.808Z,1015.67
2017-08-21T00:59:13.764Z,1015.63
2017-08-21T01:00:22.714Z,1015.62
2017-08-21T01:01:31.677Z,1015.69
2017-08-21T01:02:40.639Z,1015.65
2017-08-21T01:03:49.590Z,1015.62
2017-08-21T01:04:58.568Z,1015.62
2017-08-21T01:06:07.528Z,1015.62
2017-08-21T01:07:16.487Z,1015.63
2017-08-21T01:08:25.449Z,1015.61
2017-08-21T01:09:34.409Z,1015.63
2017-08-21T01:10:43.365Z,1015.57
2017-08-21T01:11:52.649Z,1015.62
2017-08-21T01:13:01.941Z,1015.59
2017-08-21T01:14:10.895Z,1015.61
2017-08-21T01:15:19.858Z,1015.6
2017-08-21T01:16:28.819Z,1015.59
2017-08-21T01:17:37.775Z,1015.64
2017-08-21T01:18:46.731Z,1015.59
2017-08-21T01:19:55.693Z,1015.62
2017-08-21T01:21:04.655Z,1015.67
2017-08-21T01:22:13.606Z,1015.6
2017-08-21T01:23:22.557Z,1015.62
2017-08-21T01:24:31.520Z,1015.59
2017-08-21T01:25:40.468Z,1015.58
2017-08-21T01:26:49.422Z,1015.58
2017-08-21T01:27:58.369Z,1015.6
2017-08-21T01:29:07.323Z,1015.6
2017-08-21T01:30:16.280Z,1015.6
2017-08-21T01:31:25.234Z,1015.59
2017-08-21T01:32:34.189Z,1015.58
2017-08-21T01:33:43.147Z,1015.55
2017-08-21T01:34:52.127Z,1015.56
2017-08-21T01:36:01.402Z,1015.61
2017-08-21T01:37:10.355Z,1015.59
2017-08-21T01:38:19.306Z,1015.6
2017-08-21T01:39:28.589Z,1015.59
2017-08-21T01:40:37.562Z,1015.54
2017-08-21T01:41:46.528Z,1015.54
2017-08-21T01:42:55.475Z,1015.5
2017-08-21T01:44:04.428Z,1015.46
2017-08-21T01:45:13.702Z,1015.51
2017-08-21T01:46:22.662Z,1015.49
2017-08-21T01:47:31.941Z,1015.46
2017-08-21T01:48:40.893Z,1015.46
2017-08-21T01:49:49.845Z,1015.46
2017-08-21T01:50:59.128Z,1015.46
2017-08-21T01:52:08.085Z,1015.45
2017-08-21T01:53:17.037Z,1015.44
2017-08-21T01:54:25.991Z,1015.49
2017-08-21T01:55:34.943Z,1015.46
2017-08-21T01:56:43.904Z,1015.47
2017-08-21T01:57:52.866Z,1015.49
2017-08-21T01:59:01.816Z,1015.44
2017-08-21T02:00:10.775Z,1015.45
2017-08-21T02:01:19.722Z,1015.38
2017-08-21T02:02:28.671Z,1015.4
2017-08-21T02:03:37.617Z,1015.45
2017-08-21T02:04:46.895Z,1015.41
2017-08-21T02:05:55.856Z,1015.37
2017-08-21T02:07:04.811Z,1015.38
2017-08-21T02:08:13.765Z,1015.36
2017-08-21T02:09:22.730Z,1015.32
2017-08-21T02:10:31.681Z,1015.35
2017-08-21T02:11:40.636Z,1015.36
2017-08-21T02:12:49.581Z,1015.37
2017-08-21T02:13:58.535Z,1015.39
2017-08-21T02:15:07.489Z,1015.34
2017-08-21T02:16:16.446Z,1015.39
2017-08-21T02:17:25.398Z,1015.43
2017-08-21T02:18:34.379Z,1015.41
2017-08-21T02:19:43.656Z,1015.4
2017-08-21T02:20:52.617Z,1015.42
2017-08-21T02:22:01.602Z,1015.4
2017-08-21T02:23:10.882Z,1015.37
2017-08-21T02:24:19.831Z,1015.38
2017-08-21T02:25:28.823Z,1015.39
2017-08-21T02:26:37.784Z,1015.33
2017-08-21T02:27:46.748Z,1015.38
2017-08-21T02:28:55.706Z,1015.39
2017-08-21T02:30:04.982Z,1015.39
2017-08-21T02:31:13.942Z,1015.36
2017-08-21T02:32:22.926Z,1015.4
2017-08-21T02:33:31.883Z,1015.41
2017-08-21T02:34:40.843Z,1015.36
2017-08-21T02:35:49.797Z,1015.42
2017-08-21T02:36:58.756Z,1015.41
2017-08-21T02:38:07.713Z,1015.43
2017-08-21T02:39:17.001Z,1015.42
2017-08-21T02:40:25.953Z,1015.4
2017-08-21T02:41:34.912Z,1015.37
2017-08-21T02:42:43.869Z,1015.42
2017-08-21T02:43:52.827Z,1015.44
2017-08-21T02:45:01.777Z,1015.49
2017-08-21T02:46:10.728Z,1015.43
2017-08-21T02:47:19.718Z,1015.48
2017-08-21T02:48:28.674Z,1015.48
2017-08-21T02:49:37.624Z,1015.47
2017-08-21T02:50:46.905Z,1015.5
2017-08-21T02:51:55.871Z,1015.48
2017-08-21T02:53:04.830Z,1015.53
2017-08-21T02:54:13.783Z,1015.52
2017-08-21T02:55:22.749Z,1015.54
2017-08-21T02:56:31.725Z,1015.53
2017-08-21T02:57:40.676Z,1015.52
2017-08-21T02:58:49.626Z,1015.52
2017-08-21T02:59:58.584Z,1015.48
2017-08-21T03:01:07.539Z,1015.51
2017-08-21T03:02:16.493Z,1015.51
2017-08-21T03:03:25.444Z,1015.51
2017-08-21T03:04:34.399Z,1015.52
2017-08-21T03:05:43.348Z,1015.56
2017-08-21T03:06:52.304Z,1015.54
2017-08-21T03:08:01.261Z,1015.54
2017-08-21T03:09:10.543Z,1015.55
2017-08-21T03:10:19.495Z,1015.51
2017-08-21T03:11:28.463Z,1015.53
2017-08-21T03:12:37.420Z,1015.5
2017-08-21T03:13:46.377Z,1015.48
2017-08-21T03:14:55.325Z,1015.49
2017-08-21T03:16:04.288Z,1015.46
2017-08-21T03:17:13.245Z,1015.48
2017-08-21T03:18:22.196Z,1015.45
2017-08-21T03:19:31.149Z,1015.46
2017-08-21T03:20:40.101Z,1015.46
2017-08-21T03:21:49.068Z,1015.46
2017-08-21T03:22:58.027Z,1015.49
2017-08-21T03:24:06.983Z,1015.52
2017-08-21T03:25:15.939Z,1015.5
2017-08-21T03:26:24.912Z,1015.5
2017-08-21T03:27:33.870Z,1015.52
2017-08-21T03:28:42.824Z,1015.44
2017-08-21T03:29:51.778Z,1015.45
2017-08-21T03:31:00.724Z,1015.47
2017-08-21T03:32:09.706Z,1015.44
2017-08-21T03:33:18.672Z,1015.44
2017-08-21T03:34:27.646Z,1015.47
2017-08-21T03:35:36.912Z,1015.44
2017-08-21T03:36:45.866Z,1015.44
2017-08-21T03:37:54.848Z,1015.43
2017-08-21T03:39:03.816Z,1015.44
2017-08-21T03:40:12.773Z,1015.44
2017-08-21T03:41:21.733Z,1015.43
2017-08-21T03:42:30.686Z,1015.43
2017-08-21T03:43:39.642Z,1015.44
2017-08-21T03:44:48.600Z,1015.45
2017-08-21T03:45:57.557Z,1015.41
2017-08-21T03:47:06.513Z,1015.43
2017-08-21T03:48:15.464Z,1015.41
2017-08-21T03:49:24.416Z,1015.4
2017-08-21T03:50:33.462Z,1015.38
2017-08-21T03:51:42.415Z,1015.37
2017-08-21T03:52:51.368Z,1015.4
2017-08-21T03:54:00.315Z,1015.4
2017-08-21T03:55:09.262Z,1015.4
2017-08-21T03:56:18.220Z,1015.36
2017-08-21T03:57:27.169Z,1015.41
2017-08-21T03:58:36.131Z,1015.4
2017-08-21T03:59:45.092Z,1015.37
2017-08-21T04:00:54.372Z,1015.39
2017-08-21T04:02:03.665Z,1015.41
2017-08-21T04:03:12.630Z,1015.39
2017-08-21T04:04:21.584Z,1015.45
2017-08-21T04:05:30.568Z,1015.39
2017-08-21T04:06:39.523Z,1015.44
2017-08-21T04:07:48.484Z,1015.38
2017-08-21T04:08:57.441Z,1015.45
2017-08-21T04:10:06.393Z,1015.43
2017-08-21T04:11:15.680Z,1015.44
2017-08-21T04:12:24.967Z,1015.46
2017-08-21T04:13:33.915Z,1015.46
2017-08-21T04:14:42.875Z,1015.47
2017-08-21T04:15:51.829Z,1015.5
2017-08-21T04:17:01.112Z,1015.46
2017-08-21T04:18:10.068Z,1015.48
2017-08-21T04:19:19.019Z,1015.51
2017-08-21T04:20:27.982Z,1015.51
2017-08-21T04:21:36.936Z,1015.48
2017-08-21T04:22:45.893Z,1015.52
2017-08-21T04:23:54.849Z,1015.52
2017-08-21T04:25:03.791Z,1015.55
2017-08-21T04:26:12.745Z,1015.6
2017-08-21T04:27:21.706Z,1015.56
2017-08-21T04:28:30.686Z,1015.58
2017-08-21T04:29:39.652Z,1015.58
2017-08-21T04:30:48.607Z,1015.63
2017-08-21T04:31:57.570Z,1015.58
2017-08-21T04:33:06.939Z,1015.57
2017-08-21T04:34:15.895Z,1015.6
2017-08-21T04:35:24.838Z,1015.62
2017-08-21T04:36:33.785Z,1015.64
2017-08-21T04:37:43.068Z,1015.62
2017-08-21T04:38:52.114Z,1015.64
2017-08-21T04:40:01.065Z,1015.63
2017-08-21T04:41:10.427Z,1015.65
2017-08-21T04:42:19.375Z,1015.64
2017-08-21T04:43:28.327Z,1015.68
2017-08-21T04:44:37.279Z,1015.69
2017-08-21T04:45:46.227Z,1015.68
2017-08-21T04:46:55.509Z,1015.59
2017-08-21T04:48:04.494Z,1015.58
2017-08-21T04:49:13.446Z,1015.65
2017-08-21T04:50:22.405Z,1015.63
2017-08-21T04:51:31.365Z,1015.64
2017-08-21T04:52:40.319Z,1015.68
2017-08-21T04:53:49.271Z,1015.58
2017-08-21T04:54:58.223Z,1015.6
2017-08-21T04:56:07.180Z,1015.61
2017-08-21T04:57:16.136Z,1015.64
2017-08-21T04:58:25.091Z,1015.62
2017-08-21T04:59:34.046Z,1015.61
2017-08-21T05:00:43.001Z,1015.64
2017-08-21T05:01:52.287Z,1015.59
2017-08-21T05:03:01.255Z,1015.65
2017-08-21T05:04:10.224Z,1015.65
2017-08-21T05:05:19.176Z,1015.65
2017-08-21T05:06:28.133Z,1015.6
2017-08-21T05:07:37.088Z,1015.65
2017-08-21T05:08:46.067Z,1015.63
2017-08-21T05:09:55.033Z,1015.61
2017-08-21T05:11:04.090Z,1015.64
2017-08-21T05:12:13.040Z,1015.63
2017-08-21T05:13:21.997Z,1015.63
2017-08-21T05:14:30.948Z,1015.61
2017-08-21T05:15:39.902Z,1015.64
2017-08-21T05:16:48.852Z,1015.68
2017-08-21T05:17:57.806Z,1015.67
2017-08-21T05:19:07.084Z,1015.71
2017-08-21T05:20:16.032Z,1015.7
2017-08-21T05:21:24.979Z,1015.71
2017-08-21T05:22:33.935Z,1015.65
2017-08-21T05:23:42.883Z,1015.72
2017-08-21T05:24:51.839Z,1015.76
2017-08-21T05:26:00.793Z,1015.76
2017-08-21T05:27:10.073Z,1015.71
2017-08-21T05:28:19.024Z,1015.69
2017-08-21T05:29:27.971Z,1015.76
2017-08-21T05:30:36.930Z,1015.75
2017-08-21T05:31:45.879Z,1015.73
2017-08-21T05:32:54.836Z,1015.74
2017-08-21T05:34:04.445Z,1015.78
2017-08-21T05:35:13.395Z,1015.81
2017-08-21T05:36:22.349Z,1015.82
2017-08-21T05:37:31.298Z,1015.82
2017-08-21T05:38:40.278Z,1015.87
2017-08-21T05:39:49.234Z,1015.87
2017-08-21T05:40:58.516Z,1015.81
2017-08-21T05:42:07.466Z,1015.88
2017-08-21T05:43:16.417Z,1015.86
2017-08-21T05:44:25.373Z,1015.87
2017-08-21T05:45:34.322Z,1015.85
2017-08-21T05:46:43.602Z,1015.87
2017-08-21T05:47:52.573Z,1015.85
2017-08-21T05:49:01.520Z,1015.85
2017-08-21T05:50:10.476Z,1015.85
2017-08-21T05:51:19.433Z,1015.9
2017-08-21T05:52:28.709Z,1015.88
2017-08-21T05:53:37.661Z,1015.91
2017-08-21T05:54:46.614Z,1015.97
2017-08-21T05:55:55.567Z,1015.95
2017-08-21T05:57:04.526Z,1015.93
2017-08-21T05:58:13.486Z,1015.98
2017-08-21T05:59:22.444Z,1016.01
2017-08-21T06:00:31.393Z,1015.99
2017-08-21T06:01:40.346Z,1016.01
2017-08-21T06:02:49.299Z,1016.03
2017-08-21T06:03:58.257Z,1015.99
2017-08-21T06:05:07.222Z,1015.98
2017-08-21T06:06:16.183Z,1016
2017-08-21T06:07:25.134Z,1016
2017-08-21T06:08:34.089Z,1016.01
2017-08-21T06:09:43.047Z,1016.05
2017-08-21T06:10:52.003Z,1016.02
2017-08-21T06:12:00.956Z,1016.06
2017-08-21T06:13:09.913Z,1016
2017-08-21T06:14:18.872Z,1016.07
2017-08-21T06:15:28.144Z,1016.06
2017-08-21T06:16:37.108Z,1016.02
2017-08-21T06:17:46.068Z,1016
2017-08-21T06:18:55.019Z,1015.99
2017-08-21T06:20:03.973Z,1015.92
2017-08-21T06:21:12.943Z,1015.93
2017-08-21T06:22:21.911Z,1015.93
2017-08-21T06:23:30.862Z,1015.94
2017-08-21T06:24:39.825Z,1015.92
2017-08-21T06:25:48.783Z,1015.93
2017-08-21T06:26:57.768Z,1015.98
2017-08-21T06:28:06.717Z,1016
2017-08-21T06:29:15.669Z,1015.94
2017-08-21T06:30:24.969Z,1016.01
2017-08-21T06:31:33.938Z,1015.99
2017-08-21T06:32:42.895Z,1016.04
2017-08-21T06:33:51.862Z,1016.03
2017-08-21T06:35:00.829Z,1016.03
2017-08-21T06:36:09.780Z,1016.08
2017-08-21T06:37:18.731Z,1016.09
2017-08-21T06:38:27.691Z,1016.13
2017-08-21T06:39:36.979Z,1016.05
2017-08-21T06:40:46.231Z,1016.11
2017-08-21T06:41:55.180Z,1016.12
2017-08-21T06:43:04.136Z,1016.15
2017-08-21T06:44:13.116Z,1016.11
2017-08-21T06:45:22.080Z,1016.11
2017-08-21T06:46:31.033Z,1016.11
2017-08-21T06:47:39.990Z,1016.13
2017-08-21T06:48:48.948Z,1016.05
2017-08-21T06:49:57.903Z,1016.07
2017-08-21T06:51:07.183Z,1016.09
2017-08-21T06:52:16.141Z,1016.1
2017-08-21T06:53:25.103Z,1016.13
2017-08-21T06:54:34.061Z,1016.1
2017-08-21T06:55:43.020Z,1016.12
2017-08-21T06:56:51.973Z,1016.14
2017-08-21T06:58:00.929Z,1016.16
2017-08-21T06:59:09.892Z,1016.18
2017-08-21T07:00:18.845Z,1016.17
2017-08-21T07:01:27.794Z,1016.17
2017-08-21T07:02:37.035Z,1016.14
2017-08-21T07:03:46.075Z,1016.16
2017-08-21T07:04:57.028Z,1016.15
2017-08-21T07:06:27.886Z,1016.13
2017-08-21T07:07:59.397Z,1016.12
2017-08-21T07:09:34.154Z,1016.15
2017-08-21T07:11:06.006Z,1016.12
2017-08-21T07:12:36.725Z,1016.11
2017-08-21T07:14:06.880Z,1016.11
2017-08-21T07:15:39.672Z,1016.15
2017-08-21T07:17:11.102Z,1016.13
2017-08-21T07:18:41.549Z,1016.13
2017-08-21T07:20:11.256Z,1016.14
2017-08-21T07:21:44.014Z,1016.15
2017-08-21T07:23:14.084Z,1016.17
2017-08-21T07:24:45.396Z,1016.18
2017-08-21T07:26:16.147Z,1016.2
2017-08-21T07:27:50.718Z,1016.18
2017-08-21T07:29:11.716Z,1016.22
2017-08-21T07:30:20.700Z,1016.1
2017-08-21T07:31:29.983Z,1016.18
2017-08-21T07:32:38.951Z,1016.1
2017-08-21T07:33:47.913Z,1016.14
2017-08-21T07:34:56.870Z,1016.19
2017-08-21T07:36:05.830Z,1016.14
2017-08-21T07:37:14.782Z,1016.24
2017-08-21T07:38:23.733Z,1016.18
2017-08-21T07:39:32.687Z,1016.18
2017-08-21T07:40:41.650Z,1016.16
2017-08-21T07:41:50.636Z,1016.16
2017-08-21T07:42:59.587Z,1016.2
2017-08-21T07:44:09.067Z,1016.15
2017-08-21T07:45:18.021Z,1016.22
2017-08-21T07:46:26.983Z,1016.19
2017-08-21T07:47:35.937Z,1016.16
2017-08-21T07:48:45.214Z,1016.1
2017-08-21T07:49:55.385Z,1016.14
2017-08-21T07:51:10.090Z,1016.15
2017-08-21T07:52:19.314Z,1016.11
2017-08-21T07:53:28.314Z,1016.08
2017-08-21T07:54:37.544Z,1016.14
2017-08-21T07:55:47.986Z,1016.09
2017-08-21T07:56:56.944Z,1016.09
2017-08-21T07:58:05.900Z,1016.09
2017-08-21T07:59:15.181Z,1016.08
2017-08-21T08:00:24.139Z,1016.14
2017-08-21T08:01:33.099Z,1016.13
2017-08-21T08:02:42.057Z,1016.14
2017-08-21T08:03:51.138Z,1016.07
2017-08-21T08:05:00.123Z,1016.14
2017-08-21T08:06:09.422Z,1016.06
2017-08-21T08:07:18.734Z,1016.2
2017-08-21T08:08:27.707Z,1016.1
2017-08-21T08:09:37.018Z,1016.05
2017-08-21T08:10:45.998Z,1016.05
2017-08-21T08:11:54.990Z,1016.05
2017-08-21T08:13:03.982Z,1016.16
2017-08-21T08:14:12.959Z,1016.07
2017-08-21T08:15:21.932Z,1016.05
2017-08-21T08:16:31.233Z,1016.08
2017-08-21T08:17:40.215Z,1016.06
2017-08-21T08:18:49.203Z,1016.08
2017-08-21T08:19:58.504Z,1016.1
2017-08-21T08:21:07.484Z,1016.12
2017-08-21T08:22:16.466Z,1016.09
2017-08-21T08:23:25.430Z,1016.11
2017-08-21T08:24:34.392Z,1016.08
2017-08-21T08:25:43.354Z,1016.11
2017-08-21T08:26:52.317Z,1016.07
2017-08-21T08:28:01.278Z,1016.11
2017-08-21T08:29:10.286Z,1016.09
2017-08-21T08:30:19.257Z,1016.08
2017-08-21T08:31:28.209Z,1016.02
2017-08-21T08:32:37.156Z,1016.1
2017-08-21T08:33:46.115Z,1016.06
2017-08-21T08:34:55.089Z,1016.02
2017-08-21T08:36:04.042Z,1016.04
2017-08-21T08:37:13.021Z,1016.02
2017-08-21T08:38:21.980Z,1016.06
2017-08-21T08:39:30.942Z,1016.07
2017-08-21T08:40:39.902Z,1016.08
2017-08-21T08:41:48.863Z,1016.09
2017-08-21T08:42:57.821Z,1016.1
2017-08-21T08:44:07.112Z,1016.05
2017-08-21T08:45:16.431Z,1016.17
2017-08-21T08:46:25.382Z,1016.04
2017-08-21T08:47:34.338Z,1016.09
2017-08-21T08:48:43.310Z,1016.09
2017-08-21T08:49:52.267Z,1016.03
2017-08-21T08:51:01.223Z,1016.13
2017-08-21T08:52:10.177Z,1016.12
2017-08-21T08:53:19.142Z,1016.14
2017-08-21T08:54:28.103Z,1016.15
2017-08-21T08:55:37.056Z,1016.07
2017-08-21T08:56:46.011Z,1016.11
2017-08-21T08:57:54.970Z,1016.14
2017-08-21T08:59:03.931Z,1016.16
2017-08-21T09:00:12.967Z,1016.13
2017-08-21T09:01:21.920Z,1016.12
2017-08-21T09:02:30.945Z,1016.12
2017-08-21T09:03:40.064Z,1016.14
2017-08-21T09:04:49.452Z,1016.16
2017-08-21T09:05:58.444Z,1016.11
2017-08-21T09:07:07.810Z,1016.12
2017-08-21T09:08:16.954Z,1016.17
2017-08-21T09:09:26.056Z,1016.16
2017-08-21T09:10:35.228Z,1016.19
2017-08-21T09:11:44.335Z,1016.06
2017-08-21T09:12:53.465Z,1016.11
2017-08-21T09:14:02.907Z,1016.09
2017-08-21T09:15:12.055Z,1016.13
2017-08-21T09:16:21.284Z,1016.04
2017-08-21T09:17:30.398Z,1016.12
2017-08-21T09:18:39.597Z,1016.08
2017-08-21T09:19:48.765Z,1016.09
2017-08-21T09:20:57.942Z,1016.03
2017-08-21T09:22:07.089Z,1016.02
2017-08-21T09:23:16.055Z,1016
2017-08-21T09:24:25.016Z,1016.05
2017-08-21T09:25:34.090Z,1015.96
2017-08-21T09:26:43.047Z,1016
2017-08-21T09:27:52.002Z,1016.02
2017-08-21T09:29:00.963Z,1016.02
2017-08-21T09:30:09.929Z,1016.1
2017-08-21T09:31:18.885Z,1016.08
2017-08-21T09:32:28.251Z,1016.01
2017-08-21T09:33:37.205Z,1016.06
2017-08-21T09:34:46.165Z,1016.06
2017-08-21T09:35:55.310Z,1016.08
2017-08-21T09:37:04.443Z,1016.09
2017-08-21T09:38:13.421Z,1016.05
2017-08-21T09:39:22.538Z,1016.06
2017-08-21T09:40:31.676Z,1016.06
2017-08-21T09:41:41.159Z,1016.05
2017-08-21T09:42:50.414Z,1016.02
2017-08-21T09:43:59.585Z,1016.07
2017-08-21T09:45:08.789Z,1016.04
2017-08-21T09:46:18.016Z,1016.02
2017-08-21T09:47:26.974Z,1016
2017-08-21T09:48:36.246Z,1016.05
2017-08-21T09:49:45.428Z,1016.01
2017-08-21T09:50:54.381Z,1016.01
2017-08-21T09:52:03.615Z,1015.97
2017-08-21T09:53:12.726Z,1016.05
2017-08-21T09:54:22.147Z,1016
2017-08-21T09:55:31.448Z,1016.04
2017-08-21T09:56:40.703Z,1016.03
2017-08-21T09:57:49.741Z,1015.98
2017-08-21T09:58:58.756Z,1015.98
2017-08-21T10:00:07.719Z,1016
2017-08-21T10:01:16.681Z,1016
2017-08-21T10:02:25.644Z,1015.98
2017-08-21T10:03:34.936Z,1015.9
2017-08-21T10:04:43.893Z,1015.93
2017-08-21T10:05:52.854Z,1015.9
2017-08-21T10:07:02.146Z,1015.93
2017-08-21T10:08:11.100Z,1015.96
2017-08-21T10:09:20.049Z,1015.93
2017-08-21T10:10:29.018Z,1015.92
2017-08-21T10:11:37.983Z,1015.87
2017-08-21T10:12:46.941Z,1015.91
2017-08-21T10:13:56.227Z,1015.89
2017-08-21T10:15:05.183Z,1015.9
2017-08-21T10:16:14.141Z,1015.94
2017-08-21T10:17:23.094Z,1015.95
2017-08-21T10:18:32.065Z,1015.97
2017-08-21T10:19:41.022Z,1015.93
2017-08-21T10:20:49.974Z,1015.96
2017-08-21T10:21:58.940Z,1016
2017-08-21T10:23:07.899Z,1015.95
2017-08-21T10:24:16.855Z,1015.97
2017-08-21T10:25:25.809Z,1015.91
2017-08-21T10:26:35.099Z,1015.94
2017-08-21T10:27:44.057Z,1015.88
2017-08-21T10:28:53.022Z,1015.88
2017-08-21T10:30:02.312Z,1015.88
2017-08-21T10:31:11.352Z,1015.84
2017-08-21T10:32:20.314Z,1015.87
2017-08-21T10:33:29.273Z,1015.82
2017-08-21T10:34:38.231Z,1015.79
2017-08-21T10:35:47.184Z,1015.82
2017-08-21T10:36:56.140Z,1015.8
2017-08-21T10:38:05.101Z,1015.79
2017-08-21T10:39:14.058Z,1015.77
2017-08-21T10:40:23.013Z,1015.81
2017-08-21T10:41:31.975Z,1015.74
2017-08-21T10:42:40.932Z,1015.83
2017-08-21T10:43:49.887Z,1015.78
2017-08-21T10:44:58.849Z,1015.82
2017-08-21T10:46:08.236Z,1015.82
2017-08-21T10:47:17.197Z,1015.81
2017-08-21T10:48:26.157Z,1015.78
2017-08-21T10:49:35.114Z,1015.76
2017-08-21T10:50:44.098Z,1015.7
2017-08-21T10:51:53.051Z,1015.73
2017-08-21T10:53:02.005Z,1015.66
2017-08-21T10:54:10.965Z,1015.67
2017-08-21T10:55:19.922Z,1015.72
2017-08-21T10:56:28.884Z,1015.75
2017-08-21T10:57:37.838Z,1015.72
2017-08-21T10:58:47.120Z,1015.7
2017-08-21T10:59:56.074Z,1015.79
2017-08-21T11:01:05.036Z,1015.72
2017-08-21T11:02:13.991Z,1015.78
2017-08-21T11:03:22.953Z,1015.8
2017-08-21T11:04:31.905Z,1015.76
2017-08-21T11:05:40.872Z,1015.76
2017-08-21T11:06:49.831Z,1015.8
2017-08-21T11:07:58.792Z,1015.76
2017-08-21T11:09:07.746Z,1015.73
2017-08-21T11:10:16.704Z,1015.81
2017-08-21T11:11:25.671Z,1015.77
2017-08-21T11:12:34.639Z,1015.78
2017-08-21T11:13:43.596Z,1015.81
2017-08-21T11:14:52.556Z,1015.75
2017-08-21T11:16:01.528Z,1015.68
2017-08-21T11:17:10.481Z,1015.64
2017-08-21T11:18:19.440Z,1015.66
2017-08-21T11:19:28.417Z,1015.6
2017-08-21T11:20:37.369Z,1015.58
2017-08-21T11:21:46.502Z,1015.56
2017-08-21T11:22:55.460Z,1015.58
2017-08-21T11:24:04.416Z,1015.57
2017-08-21T11:25:13.400Z,1015.51
2017-08-21T11:26:22.370Z,1015.54
2017-08-21T11:27:31.320Z,1015.5
2017-08-21T11:28:40.278Z,1015.51
2017-08-21T11:29:49.240Z,1015.52
2017-08-21T11:30:58.192Z,1015.49
2017-08-21T11:32:07.160Z,1015.54
2017-08-21T11:33:16.108Z,1015.53
2017-08-21T11:34:25.657Z,1015.58
2017-08-21T11:35:34.616Z,1015.47
2017-08-21T11:36:43.578Z,1015.37
2017-08-21T11:37:52.651Z,1015.32
2017-08-21T11:39:01.603Z,1015.32
2017-08-21T11:40:10.893Z,1015.4
2017-08-21T11:41:19.848Z,1015.38
2017-08-21T11:42:28.806Z,1015.38
2017-08-21T11:43:37.753Z,1015.4
2017-08-21T11:44:46.711Z,1015.32
2017-08-21T11:45:55.667Z,1015.4
2017-08-21T11:47:04.626Z,1015.29
2017-08-21T11:48:13.579Z,1015.38
2017-08-21T11:49:22.546Z,1015.28
2017-08-21T11:50:31.500Z,1015.36
2017-08-21T11:51:40.451Z,1015.41
2017-08-21T11:52:49.411Z,1015.38
2017-08-21T11:53:58.781Z,1015.37
2017-08-21T11:55:07.740Z,1015.29
2017-08-21T11:56:17.188Z,1015.32
2017-08-21T11:57:26.337Z,1015.26
2017-08-21T11:58:35.309Z,1015.23
2017-08-21T11:59:44.266Z,1015.3
2017-08-21T12:00:53.291Z,1015.21
2017-08-21T12:02:02.308Z,1015.27
2017-08-21T12:03:11.428Z,1015.23
2017-08-21T12:04:20.441Z,1015.23
2017-08-21T12:05:29.504Z,1015.27
2017-08-21T12:06:38.782Z,1015.3
2017-08-21T12:07:47.773Z,1015.36
2017-08-21T12:08:56.749Z,1015.22
2017-08-21T12:10:05.833Z,1015.33
2017-08-21T12:11:14.813Z,1015.32
2017-08-21T12:12:23.792Z,1015.27
2017-08-21T12:13:32.751Z,1015.28
2017-08-21T12:14:41.715Z,1015.3
2017-08-21T12:15:50.673Z,1015.37
2017-08-21T12:16:59.625Z,1015.34
2017-08-21T12:18:08.581Z,1015.32
2017-08-21T12:19:17.634Z,1015.31
2017-08-21T12:20:26.704Z,1015.35
2017-08-21T12:21:35.666Z,1015.36
2017-08-21T12:22:44.627Z,1015.32
2017-08-21T12:23:53.598Z,1015.32
2017-08-21T12:25:02.562Z,1015.3
2017-08-21T12:26:11.532Z,1015.29
2017-08-21T12:27:20.489Z,1015.33
2017-08-21T12:28:29.452Z,1015.25
2017-08-21T12:29:38.405Z,1015.26
2017-08-21T12:30:47.356Z,1015.33
2017-08-21T12:31:56.318Z,1015.24
2017-08-21T12:33:05.278Z,1015.23
2017-08-21T12:34:14.242Z,1015.22
2017-08-21T12:35:23.196Z,1015.21
2017-08-21T12:36:32.195Z,1015.18
2017-08-21T12:37:41.521Z,1015.16
2017-08-21T12:38:50.508Z,1015.2
2017-08-21T12:39:59.483Z,1015.16
2017-08-21T12:41:08.433Z,1015.18
2017-08-21T12:42:17.395Z,1015.27
2017-08-21T12:43:26.352Z,1015.2
2017-08-21T12:44:35.320Z,1015.27
2017-08-21T12:45:44.275Z,1015.21
2017-08-21T12:46:53.239Z,1015.26
2017-08-21T12:48:02.326Z,1015.24
2017-08-21T12:49:11.326Z,1015.22
2017-08-21T12:50:20.319Z,1015.2
2017-08-21T12:51:29.283Z,1015.32
2017-08-21T12:52:38.232Z,1015.25
2017-08-21T12:53:47.192Z,1015.28
2017-08-21T12:54:56.149Z,1015.27
2017-08-21T12:56:05.112Z,1015.2
2017-08-21T12:57:14.109Z,1015.2
2017-08-21T12:58:23.097Z,1015.17
2017-08-21T12:59:32.065Z,1015.27
2017-08-21T13:00:41.038Z,1015.15
2017-08-21T13:01:49.997Z,1015.14
2017-08-21T13:02:58.958Z,1015.09
2017-08-21T13:04:08.044Z,1015.07
2017-08-21T13:05:17.328Z,1015.16
2017-08-21T13:06:26.287Z,1015.03
2017-08-21T13:07:35.259Z,1015.09
2017-08-21T13:08:44.214Z,1015.05
2017-08-21T13:09:53.184Z,1015.08
2017-08-21T13:11:02.153Z,1015.06
2017-08-21T13:12:11.140Z,1015.01
2017-08-21T13:13:20.132Z,1015.01
2017-08-21T13:14:29.089Z,1014.94
2017-08-21T13:15:38.050Z,1014.95
2017-08-21T13:16:47.356Z,1014.97
2017-08-21T13:17:56.329Z,1014.95
2017-08-21T13:19:05.319Z,1014.96
2017-08-21T13:20:14.304Z,1014.91
2017-08-21T13:21:23.284Z,1014.92
2017-08-21T13:22:32.275Z,1014.91
2017-08-21T13:23:41.263Z,1014.93
2017-08-21T13:24:50.240Z,1014.94
2017-08-21T13:25:59.228Z,1014.94
2017-08-21T13:27:08.223Z,1014.94
2017-08-21T13:28:17.518Z,1014.93
2017-08-21T13:29:26.645Z,1014.94
2017-08-21T13:30:35.629Z,1014.9
2017-08-21T13:31:44.627Z,1014.91
2017-08-21T13:32:53.605Z,1014.95
2017-08-21T13:34:02.593Z,1014.91
2017-08-21T13:35:11.901Z,1014.93
2017-08-21T13:36:20.877Z,1014.96
2017-08-21T13:37:29.863Z,1014.93
2017-08-21T13:38:38.847Z,1014.88
2017-08-21T13:39:47.822Z,1014.88
2017-08-21T13:40:56.800Z,1014.84
2017-08-21T13:42:05.903Z,1014.84
2017-08-21T13:43:15.078Z,1014.89
2017-08-21T13:44:24.253Z,1014.83
2017-08-21T13:45:33.750Z,1014.91
2017-08-21T13:46:43.099Z,1014.93
2017-08-21T13:47:52.236Z,1014.88
2017-08-21T13:49:01.316Z,1014.91
2017-08-21T13:50:10.374Z,1014.83
2017-08-21T13:51:19.636Z,1014.84
2017-08-21T13:52:28.734Z,1014.86
2017-08-21T13:53:38.088Z,1014.84
2017-08-21T13:54:48.705Z,1014.84
2017-08-21T13:55:58.006Z,1014.83
2017-08-21T13:57:07.315Z,1014.86
2017-08-21T13:58:16.379Z,1014.91
2017-08-21T13:59:25.503Z,1014.94
2017-08-21T14:00:34.557Z,1014.97
2017-08-21T14:01:43.537Z,1015.03
2017-08-21T14:02:52.515Z,1015.01
2017-08-21T14:04:01.471Z,1014.98